createdAt,value
2018-09-15T00:00:40.524Z,32.29
2018-09-15T00:03:12.340Z,32.25
2018-09-15T00:05:44.230Z,32.26
2018-09-15T00:08:16.312Z,32.27
2018-09-15T00:10:49.235Z,32.27
2018-09-15T00:13:22.415Z,32.24
2018-09-15T00:15:54.293Z,32.24
2018-09-15T00:18:27.359Z,32.24
2018-09-15T00:20:59.070Z,32.22
2018-09-15T00:23:30.837Z,32.20
2018-09-15T00:26:02.749Z,32.21
2018-09-15T00:28:34.361Z,32.21
2018-09-15T00:31:06.301Z,32.21
2018-09-15T00:33:38.085Z,32.22
2018-09-15T00:36:09.924Z,32.22
2018-09-15T00:38:41.695Z,32.20
2018-09-15T00:41:13.333Z,32.17
2018-09-15T00:43:45.146Z,32.17
2018-09-15T00:46:17.004Z,32.18
2018-09-15T00:48:48.706Z,32.18
2018-09-15T00:51:20.546Z,32.16
2018-09-15T00:53:52.438Z,32.18
2018-09-15T00:56:24.502Z,32.16
2018-09-15T00:58:56.592Z,32.16
2018-09-15T01:01:33.116Z,32.14
2018-09-15T01:04:05.557Z,32.14
2018-09-15T01:06:37.454Z,32.12
2018-09-15T01:09:10.918Z,32.13
2018-09-15T01:11:43.086Z,32.14
2018-09-15T01:14:15.132Z,32.12
2018-09-15T01:16:46.871Z,32.12
2018-09-15T01:19:19.001Z,32.10
2018-09-15T01:21:51.068Z,32.12
2018-09-15T01:24:22.908Z,32.09
2018-09-15T01:26:55.081Z,32.03
2018-09-15T01:29:26.829Z,32.05
2018-09-15T01:31:58.752Z,32.09
2018-09-15T01:34:30.309Z,32.08
2018-09-15T01:37:02.126Z,32.07
2018-09-15T01:39:33.873Z,32.09
2018-09-15T01:42:05.672Z,32.06
2018-09-15T01:44:37.485Z,32.06
2018-09-15T01:47:09.251Z,32.06
2018-09-15T01:49:41.205Z,32.04
2018-09-15T01:52:13.153Z,32.04
2018-09-15T01:54:45.074Z,32.05
2018-09-15T01:57:16.785Z,32.02
2018-09-15T01:59:48.537Z,32.02
2018-09-15T02:02:20.406Z,32.02
2018-09-15T02:04:52.264Z,31.99
2018-09-15T02:07:23.902Z,32.00
2018-09-15T02:09:55.709Z,32.02
2018-09-15T02:12:27.862Z,32.03
2018-09-15T02:14:59.860Z,32.02
2018-09-15T02:17:31.723Z,32.00
2018-09-15T02:20:03.844Z,32.01
2018-09-15T02:24:51.454Z,32.00
2018-09-15T02:27:23.224Z,32.00
2018-09-15T02:29:55.145Z,32.00
2018-09-15T02:32:26.876Z,31.98
2018-09-15T02:34:59.014Z,32.00
2018-09-15T02:37:30.780Z,31.98
2018-09-15T02:40:02.708Z,31.97
2018-09-15T02:42:34.356Z,31.99
2018-09-15T02:45:06.326Z,31.99
2018-09-15T02:47:38.178Z,31.95
2018-09-15T02:50:10.047Z,31.97
2018-09-15T02:52:42.146Z,31.98
2018-09-15T02:55:13.979Z,31.98
2018-09-15T02:57:45.898Z,31.97
2018-09-15T03:00:17.732Z,31.98
2018-09-15T03:02:49.666Z,31.94
2018-09-15T03:05:21.533Z,31.97
2018-09-15T03:07:53.311Z,31.98
2018-09-15T03:10:25.318Z,31.96
2018-09-15T03:12:57.030Z,31.99
2018-09-15T03:15:28.850Z,31.97
2018-09-15T03:18:00.749Z,31.97
2018-09-15T03:20:32.671Z,31.96
2018-09-15T03:23:04.711Z,31.98
2018-09-15T03:25:36.471Z,31.98
2018-09-15T03:28:08.225Z,31.95
2018-09-15T03:30:40.243Z,31.96
2018-09-15T03:33:12.112Z,31.94
2018-09-15T03:35:43.948Z,31.93
2018-09-15T03:38:15.825Z,31.95
2018-09-15T03:40:47.459Z,31.95
2018-09-15T03:43:20.245Z,31.95
2018-09-15T03:45:53.507Z,31.97
2018-09-15T03:48:25.293Z,31.95
2018-09-15T03:50:57.123Z,31.96
2018-09-15T03:53:28.648Z,31.97
2018-09-15T03:56:00.797Z,31.96
2018-09-15T03:58:32.401Z,31.98
2018-09-15T04:01:04.349Z,31.98
2018-09-15T04:03:35.896Z,31.97
2018-09-15T04:06:07.816Z,31.99
2018-09-15T04:08:39.674Z,31.98
2018-09-15T04:11:11.599Z,31.98
2018-09-15T04:13:43.417Z,31.98
2018-09-15T04:16:15.056Z,31.98
2018-09-15T04:18:47.734Z,31.99
2018-09-15T04:21:19.613Z,31.99
2018-09-15T04:23:51.470Z,32.00
2018-09-15T04:26:23.416Z,32.01
2018-09-15T04:28:55.240Z,32.02
2018-09-15T04:31:27.246Z,32.03
2018-09-15T04:33:59.165Z,32.02
2018-09-15T04:36:31.441Z,32.02
2018-09-15T04:39:03.283Z,32.03
2018-09-15T04:41:35.337Z,32.04
2018-09-15T04:44:07.157Z,32.05
2018-09-15T04:46:38.892Z,32.06
2018-09-15T04:49:10.656Z,32.05
2018-09-15T04:51:42.540Z,32.01
2018-09-15T04:54:14.425Z,31.96
2018-09-15T04:56:46.693Z,31.94
2018-09-15T04:59:18.347Z,31.92
2018-09-15T05:01:50.132Z,31.90
2018-09-15T05:04:21.790Z,31.87
2018-09-15T05:06:53.756Z,31.88
2018-09-15T05:09:25.628Z,31.88
2018-09-15T05:11:57.649Z,31.87
2018-09-15T05:14:29.388Z,31.90
2018-09-15T05:17:01.268Z,31.94
2018-09-15T05:19:33.293Z,31.96
2018-09-15T05:22:05.250Z,31.97
2018-09-15T05:24:37.134Z,32.00
2018-09-15T05:27:08.834Z,32.02
2018-09-15T05:29:40.571Z,32.03
2018-09-15T05:32:12.494Z,32.03
2018-09-15T05:34:44.109Z,32.02
2018-09-15T05:37:16.082Z,32.04
2018-09-15T05:39:47.606Z,32.03
2018-09-15T05:42:19.542Z,32.04
2018-09-15T05:44:51.570Z,32.05
2018-09-15T05:47:23.377Z,32.06
2018-09-15T05:49:55.185Z,32.09
2018-09-15T05:52:27.144Z,32.07
2018-09-15T05:54:59.223Z,32.09
2018-09-15T05:57:30.952Z,32.10
2018-09-15T06:00:02.700Z,32.11
2018-09-15T06:02:34.658Z,32.12
2018-09-15T06:05:06.843Z,32.14
2018-09-15T06:07:38.937Z,32.15
2018-09-15T06:10:10.818Z,32.16
2018-09-15T06:12:42.512Z,32.17
2018-09-15T06:15:14.237Z,32.20
2018-09-15T06:17:47.428Z,32.21
2018-09-15T06:20:19.210Z,32.21
2018-09-15T06:22:51.037Z,32.23
2018-09-15T06:25:22.607Z,32.23
2018-09-15T06:27:54.174Z,32.24
2018-09-15T06:30:25.791Z,32.25
2018-09-15T06:32:57.602Z,32.25
2018-09-15T06:35:29.705Z,32.25
2018-09-15T06:38:01.751Z,32.24
2018-09-15T06:40:33.452Z,32.26
2018-09-15T06:43:05.394Z,32.26
2018-09-15T06:45:37.229Z,32.25
2018-09-15T06:48:09.115Z,32.27
2018-09-15T06:50:40.943Z,32.27
2018-09-15T06:53:12.764Z,32.28
2018-09-15T06:55:44.180Z,32.30
2018-09-15T06:58:16.101Z,32.32
2018-09-15T07:00:48.054Z,32.33
2018-09-15T07:03:20.040Z,32.34
2018-09-15T07:05:51.863Z,32.34
2018-09-15T07:08:23.737Z,32.36
2018-09-15T07:10:55.506Z,32.35
2018-09-15T07:13:27.276Z,32.35
2018-09-15T07:15:59.090Z,32.36
2018-09-15T07:18:31.470Z,32.34
2018-09-15T07:21:03.682Z,32.35
2018-09-15T07:23:35.438Z,32.35
2018-09-15T07:26:07.192Z,32.36
2018-09-15T07:28:38.896Z,32.35
2018-09-15T07:31:10.761Z,32.35
2018-09-15T07:33:42.473Z,32.36
2018-09-15T07:36:13.915Z,32.36
2018-09-15T07:38:45.863Z,32.37
2018-09-15T07:41:17.367Z,32.38
2018-09-15T07:43:49.094Z,32.38
2018-09-15T07:46:20.807Z,32.40
2018-09-15T07:48:52.567Z,32.41
2018-09-15T07:51:24.272Z,32.42
2018-09-15T07:53:56.132Z,32.43
2018-09-15T07:56:27.733Z,32.43
2018-09-15T07:58:59.298Z,32.43
2018-09-15T08:01:31.701Z,32.43
2018-09-15T08:04:03.783Z,32.44
2018-09-15T08:06:35.567Z,32.46
2018-09-15T08:09:08.482Z,32.43
2018-09-15T08:11:40.158Z,32.44
2018-09-15T08:14:12.008Z,32.46
2018-09-15T08:16:43.776Z,32.46
2018-09-15T08:19:15.913Z,32.47
2018-09-15T08:21:47.569Z,32.48
2018-09-15T08:24:20.031Z,32.50
2018-09-15T08:26:51.718Z,32.51
2018-09-15T08:29:23.518Z,32.52
2018-09-15T08:31:55.138Z,32.53
2018-09-15T08:34:27.121Z,32.55
2018-09-15T08:36:58.704Z,32.55
2018-09-15T08:39:30.261Z,32.55
2018-09-15T08:42:01.983Z,32.55
2018-09-15T08:44:33.830Z,32.56
2018-09-15T08:47:05.468Z,32.56
2018-09-15T08:49:37.309Z,32.56
2018-09-15T08:52:09.013Z,32.58
2018-09-15T08:54:40.835Z,32.58
2018-09-15T08:57:12.558Z,32.60
2018-09-15T08:59:44.437Z,32.59
2018-09-15T09:02:16.085Z,32.60
2018-09-15T09:04:48.001Z,32.61
2018-09-15T09:07:19.473Z,32.61
2018-09-15T09:09:51.309Z,32.63
2018-09-15T09:12:23.115Z,32.65
2018-09-15T09:14:54.815Z,32.65
2018-09-15T09:17:26.758Z,32.65
2018-09-15T09:19:59.054Z,32.67
2018-09-15T09:22:30.522Z,32.68
2018-09-15T09:25:02.365Z,32.68
2018-09-15T09:27:33.825Z,32.69
2018-09-15T09:30:05.583Z,32.68
2018-09-15T09:32:37.545Z,32.70
2018-09-15T09:35:09.427Z,32.70
2018-09-15T09:37:41.087Z,32.69
2018-09-15T09:40:12.839Z,32.70
2018-09-15T09:42:44.795Z,32.72
2018-09-15T09:45:16.406Z,32.73
2018-09-15T09:47:48.320Z,32.75
2018-09-15T09:50:19.959Z,32.73
2018-09-15T09:52:51.638Z,32.75
2018-09-15T09:55:23.200Z,32.77
2018-09-15T09:57:54.862Z,32.78
2018-09-15T10:00:31.472Z,32.73
2018-09-15T10:03:03.140Z,32.62
2018-09-15T10:05:34.817Z,32.55
2018-09-15T10:08:06.833Z,32.49
2018-09-15T10:10:38.583Z,32.44
2018-09-15T10:13:10.295Z,32.43
2018-09-15T10:15:43.082Z,32.51
2018-09-15T10:18:14.752Z,32.60
2018-09-15T10:20:47.469Z,32.63
2018-09-15T10:23:19.170Z,32.67
2018-09-15T10:25:51.042Z,32.73
2018-09-15T10:28:22.610Z,32.76
2018-09-15T10:30:54.385Z,32.76
2018-09-15T10:33:27.004Z,32.79
2018-09-15T10:35:59.075Z,32.80
2018-09-15T10:38:30.549Z,32.82
2018-09-15T10:41:02.409Z,32.82
2018-09-15T10:43:33.809Z,32.84
2018-09-15T10:46:05.654Z,32.85
2018-09-15T10:48:37.286Z,32.88
2018-09-15T10:51:10.142Z,32.88
2018-09-15T10:53:41.762Z,32.90
2018-09-15T10:56:13.276Z,32.90
2018-09-15T10:58:45.807Z,32.91
2018-09-15T11:01:17.674Z,32.92
2018-09-15T11:03:49.527Z,32.95
2018-09-15T11:06:22.126Z,32.97
2018-09-15T11:08:53.678Z,32.97
2018-09-15T11:11:25.532Z,32.88
2018-09-15T11:13:57.127Z,32.82
2018-09-15T11:16:29.044Z,32.76
2018-09-15T11:19:00.657Z,32.76
2018-09-15T11:21:32.548Z,32.81
2018-09-15T11:24:04.134Z,32.85
2018-09-15T11:26:35.589Z,32.88
2018-09-15T11:29:07.339Z,32.91
2018-09-15T11:31:38.976Z,32.92
2018-09-15T11:34:10.584Z,32.94
2018-09-15T11:36:42.695Z,32.95
2018-09-15T11:39:14.442Z,32.98
2018-09-15T11:41:46.179Z,32.99
2018-09-15T11:44:17.797Z,32.99
2018-09-15T11:46:49.701Z,33.01
2018-09-15T11:49:21.254Z,33.03
2018-09-15T11:51:53.176Z,33.05
2018-09-15T11:54:25.128Z,33.04
2018-09-15T11:56:56.602Z,33.07
2018-09-15T11:59:28.387Z,33.07
2018-09-15T12:02:00.302Z,33.07
2018-09-15T12:04:31.901Z,33.07
2018-09-15T12:07:03.595Z,33.08
2018-09-15T12:09:35.135Z,33.09
2018-09-15T12:12:06.690Z,33.09
2018-09-15T12:14:38.229Z,33.10
2018-09-15T12:17:09.905Z,33.09
2018-09-15T12:19:42.238Z,33.10
2018-09-15T12:22:14.118Z,33.09
2018-09-15T12:24:45.698Z,33.11
2018-09-15T12:27:17.394Z,33.12
2018-09-15T12:29:48.984Z,33.12
2018-09-15T12:32:20.887Z,33.12
2018-09-15T12:34:52.484Z,33.12
2018-09-15T12:37:24.177Z,33.12
2018-09-15T12:39:55.824Z,33.12
2018-09-15T12:42:27.621Z,33.13
2018-09-15T12:44:59.251Z,33.13
2018-09-15T12:47:31.010Z,33.13
2018-09-15T12:50:02.517Z,33.11
2018-09-15T12:52:34.571Z,33.12
2018-09-15T12:55:06.531Z,33.10
2018-09-15T12:57:38.179Z,33.12
2018-09-15T13:00:09.992Z,33.11
2018-09-15T13:02:41.811Z,33.12
2018-09-15T13:05:13.710Z,33.11
2018-09-15T13:07:45.605Z,33.01
2018-09-15T13:10:17.779Z,32.87
2018-09-15T13:12:49.713Z,32.92
2018-09-15T13:15:21.580Z,32.92
2018-09-15T13:17:53.377Z,32.93
2018-09-15T13:20:25.316Z,32.93
2018-09-15T13:22:56.934Z,32.93
2018-09-15T13:25:29.371Z,32.92
2018-09-15T13:28:01.538Z,32.91
2018-09-15T13:30:34.217Z,32.91
2018-09-15T13:33:06.573Z,32.91
2018-09-15T13:35:38.428Z,32.91
2018-09-15T13:38:10.511Z,32.91
2018-09-15T13:40:43.354Z,32.89
2018-09-15T13:43:15.719Z,32.90
2018-09-15T13:45:48.814Z,32.90
2018-09-15T13:48:21.575Z,32.91
2018-09-15T13:50:53.514Z,32.92
2018-09-15T13:53:26.136Z,32.89
2018-09-15T13:55:58.005Z,32.90
2018-09-15T13:58:29.925Z,32.91
2018-09-15T14:01:02.624Z,32.91
2018-09-15T14:03:35.128Z,32.91
2018-09-15T14:06:07.601Z,32.91
2018-09-15T14:08:39.894Z,32.90
2018-09-15T14:11:11.673Z,32.90
2018-09-15T14:13:43.570Z,32.90
2018-09-15T14:16:15.820Z,32.89
2018-09-15T14:18:47.811Z,32.90
2018-09-15T14:21:19.748Z,32.89
2018-09-15T14:23:51.416Z,32.89
2018-09-15T14:26:23.155Z,32.91
2018-09-15T14:28:54.681Z,32.89
2018-09-15T14:31:26.636Z,32.89
2018-09-15T14:33:59.611Z,32.89
2018-09-15T14:36:31.320Z,32.91
2018-09-15T14:39:03.765Z,32.90
2018-09-15T14:41:35.597Z,32.91
2018-09-15T14:44:07.255Z,32.91
2018-09-15T14:46:38.950Z,32.91
2018-09-15T14:49:10.523Z,32.92
2018-09-15T14:51:42.210Z,32.91
2018-09-15T14:54:14.030Z,32.91
2018-09-15T14:56:45.754Z,32.91
2018-09-15T14:59:17.588Z,32.92
2018-09-15T15:01:49.324Z,32.91
2018-09-15T15:04:21.244Z,32.91
2018-09-15T15:06:54.233Z,32.91
2018-09-15T15:09:26.037Z,32.91
2018-09-15T15:11:58.145Z,32.90
2018-09-15T15:14:29.975Z,32.89
2018-09-15T15:17:01.644Z,32.90
2018-09-15T15:19:33.411Z,32.89
2018-09-15T15:22:05.038Z,32.90
2018-09-15T15:24:36.831Z,32.89
2018-09-15T15:27:08.484Z,32.92
2018-09-15T15:29:40.337Z,32.92
2018-09-15T15:32:11.986Z,32.91
2018-09-15T15:34:43.666Z,32.92
2018-09-15T15:37:15.317Z,32.93
2018-09-15T15:39:46.933Z,32.93
2018-09-15T15:42:18.708Z,33.00
2018-09-15T15:44:50.696Z,33.02
2018-09-15T15:47:22.377Z,33.03
2018-09-15T15:49:54.489Z,33.04
2018-09-15T15:52:26.123Z,33.07
2018-09-15T15:54:57.940Z,33.07
2018-09-15T15:57:29.917Z,33.09
2018-09-15T16:00:01.762Z,33.09
2018-09-15T16:02:33.384Z,33.12
2018-09-15T16:05:05.561Z,33.12
2018-09-15T16:07:37.742Z,33.12
2018-09-15T16:10:09.383Z,33.14
2018-09-15T16:12:40.917Z,33.14
2018-09-15T16:15:12.721Z,33.14
2018-09-15T16:17:44.743Z,33.14
2018-09-15T16:20:16.783Z,33.14
2018-09-15T16:22:49.077Z,33.14
2018-09-15T16:25:20.838Z,33.15
2018-09-15T16:27:53.241Z,33.15
2018-09-15T16:30:24.710Z,33.15
2018-09-15T16:32:56.435Z,33.15
2018-09-15T16:35:28.285Z,33.15
2018-09-15T16:37:59.744Z,33.15
2018-09-15T16:40:31.550Z,33.15
2018-09-15T16:43:03.028Z,33.14
2018-09-15T16:45:35.149Z,33.14
2018-09-15T16:48:07.255Z,33.16
2018-09-15T16:50:38.971Z,33.16
2018-09-15T16:53:10.657Z,33.16
2018-09-15T16:55:42.480Z,33.17
2018-09-15T16:58:14.166Z,33.16
2018-09-15T17:00:45.859Z,33.17
2018-09-15T17:03:17.519Z,33.17
2018-09-15T17:05:49.184Z,33.18
2018-09-15T17:08:20.765Z,33.16
2018-09-15T17:10:54.013Z,33.16
2018-09-15T17:13:25.437Z,33.16
2018-09-15T17:15:57.301Z,33.13
2018-09-15T17:18:28.709Z,33.12
2018-09-15T17:21:00.488Z,33.14
2018-09-15T17:23:32.368Z,33.14
2018-09-15T17:26:04.191Z,33.12
2018-09-15T17:28:35.637Z,33.12
2018-09-15T17:31:07.713Z,33.12
2018-09-15T17:33:39.678Z,33.12
2018-09-15T17:36:11.434Z,33.14
2018-09-15T17:38:43.216Z,33.14
2018-09-15T17:41:15.144Z,33.16
2018-09-15T17:43:46.750Z,33.15
2018-09-15T17:46:18.663Z,33.14
2018-09-15T17:48:50.918Z,33.14
2018-09-15T17:51:22.978Z,33.14
2018-09-15T17:53:54.855Z,33.14
2018-09-15T17:56:26.843Z,33.13
2018-09-15T17:58:58.733Z,33.13
2018-09-15T18:01:30.717Z,33.12
2018-09-15T18:04:02.398Z,33.12
2018-09-15T18:06:34.385Z,33.12
2018-09-15T18:09:07.207Z,33.10
2018-09-15T18:11:40.106Z,33.10
2018-09-15T18:14:12.459Z,33.09
2018-09-15T18:16:44.283Z,33.08
2018-09-15T18:19:16.222Z,33.09
2018-09-15T18:21:48.479Z,33.09
2018-09-15T18:24:20.199Z,33.10
2018-09-15T18:26:52.373Z,33.10
2018-09-15T18:29:24.176Z,33.09
2018-09-15T18:31:55.975Z,33.10
2018-09-15T18:34:28.617Z,33.10
2018-09-15T18:37:00.870Z,33.11
2018-09-15T18:39:32.317Z,33.10
2018-09-15T18:42:04.345Z,33.11
2018-09-15T18:44:36.111Z,33.11
2018-09-15T18:47:07.944Z,33.12
2018-09-15T18:49:39.642Z,33.06
2018-09-15T18:52:11.544Z,33.06
2018-09-15T18:54:43.657Z,33.08
2018-09-15T18:57:15.543Z,33.09
2018-09-15T18:59:47.674Z,33.09
2018-09-15T19:02:19.475Z,33.08
2018-09-15T19:04:51.242Z,33.09
2018-09-15T19:07:23.114Z,33.10
2018-09-15T19:09:54.917Z,33.09
2018-09-15T19:12:26.466Z,33.08
2018-09-15T19:14:58.208Z,33.10
2018-09-15T19:17:29.890Z,33.09
2018-09-15T19:20:01.595Z,33.09
2018-09-15T19:22:34.594Z,33.08
2018-09-15T19:25:06.646Z,33.06
2018-09-15T19:27:38.686Z,33.04
2018-09-15T19:30:10.326Z,33.04
2018-09-15T19:32:42.288Z,33.04
2018-09-15T19:35:14.123Z,33.04
2018-09-15T19:37:45.895Z,33.04
2018-09-15T19:40:17.565Z,33.04
2018-09-15T19:42:49.171Z,33.04
2018-09-15T19:45:20.923Z,33.05
2018-09-15T19:47:52.620Z,33.04
2018-09-15T19:50:24.799Z,33.04
2018-09-15T19:52:56.764Z,33.02
2018-09-15T19:55:28.436Z,33.04
2018-09-15T19:58:00.362Z,33.03
2018-09-15T20:00:32.270Z,33.04
2018-09-15T20:03:03.821Z,33.03
2018-09-15T20:05:35.723Z,33.03
2018-09-15T20:08:07.579Z,33.03
2018-09-15T20:10:39.274Z,33.02
2018-09-15T20:13:11.065Z,33.01
2018-09-15T20:15:40.061Z,33.01
2018-09-15T20:18:08.932Z,33.01
2018-09-15T20:20:38.196Z,33.00
2018-09-15T20:23:09.856Z,33.00
2018-09-15T20:25:41.675Z,32.99
2018-09-15T20:28:13.313Z,33.00
2018-09-15T20:30:45.153Z,32.99
2018-09-15T20:33:17.136Z,32.99
2018-09-15T20:35:49.119Z,32.97
2018-09-15T20:38:20.814Z,32.94
2018-09-15T20:40:52.457Z,32.95
2018-09-15T20:43:24.037Z,32.95
2018-09-15T20:45:55.948Z,32.97
2018-09-15T20:48:27.574Z,32.94
2018-09-15T20:50:59.401Z,32.94
2018-09-15T20:53:31.100Z,32.94
2018-09-15T20:56:02.854Z,32.94
2018-09-15T20:58:34.438Z,32.93
2018-09-15T21:01:06.285Z,32.93
2018-09-15T21:03:37.728Z,32.91
2018-09-15T21:06:09.716Z,32.91
2018-09-15T21:08:41.411Z,32.89
2018-09-15T21:11:13.247Z,32.90
2018-09-15T21:13:44.950Z,32.89
2018-09-15T21:16:16.767Z,32.91
2018-09-15T21:18:48.550Z,32.90
2018-09-15T21:21:20.371Z,32.89
2018-09-15T21:23:54.583Z,32.91
2018-09-15T21:26:26.302Z,32.90
2018-09-15T21:28:58.410Z,32.89
2018-09-15T21:31:30.155Z,32.90
2018-09-15T21:34:02.104Z,32.88
2018-09-15T21:36:33.758Z,32.88
2018-09-15T21:39:05.852Z,32.88
2018-09-15T21:41:37.820Z,32.88
2018-09-15T21:44:09.586Z,32.87
2018-09-15T21:46:41.390Z,32.86
2018-09-15T21:49:13.080Z,32.85
2018-09-15T21:51:44.857Z,32.85
2018-09-15T21:54:16.560Z,32.84
2018-09-15T21:56:48.368Z,32.85
2018-09-15T21:59:19.782Z,32.84
2018-09-15T22:01:51.569Z,32.83
2018-09-15T22:04:24.100Z,32.83
2018-09-15T22:06:56.033Z,32.83
2018-09-15T22:09:27.547Z,32.83
2018-09-15T22:11:59.456Z,32.81
2018-09-15T22:14:31.225Z,32.79
2018-09-15T22:17:03.014Z,32.82
2018-09-15T22:19:35.699Z,32.81
2018-09-15T22:22:07.443Z,32.80
2018-09-15T22:24:39.433Z,32.80
2018-09-15T22:27:11.044Z,32.81
2018-09-15T22:29:42.776Z,32.78
2018-09-15T22:32:14.631Z,32.78
2018-09-15T22:34:46.478Z,32.77
2018-09-15T22:37:18.781Z,32.76
2018-09-15T22:39:50.868Z,32.75
2018-09-15T22:42:22.608Z,32.74
2018-09-15T22:44:54.602Z,32.74
2018-09-15T22:47:26.501Z,32.71
2018-09-15T22:49:58.657Z,32.71
2018-09-15T22:52:31.077Z,32.72
2018-09-15T22:55:03.807Z,32.74
2018-09-15T22:57:35.913Z,32.75
2018-09-15T23:00:07.693Z,32.75
2018-09-15T23:02:39.287Z,32.71
2018-09-15T23:05:11.097Z,32.71
2018-09-15T23:07:43.066Z,32.67
2018-09-15T23:10:15.331Z,32.69
2018-09-15T23:12:47.034Z,32.71
2018-09-15T23:15:18.955Z,32.69
2018-09-15T23:17:50.875Z,32.68
2018-09-15T23:20:23.080Z,32.69
2018-09-15T23:22:55.070Z,32.66
2018-09-15T23:25:27.103Z,32.66
2018-09-15T23:27:59.674Z,32.65
2018-09-15T23:30:31.725Z,32.64
2018-09-15T23:33:03.837Z,32.61
2018-09-15T23:35:35.864Z,32.62
2018-09-15T23:38:07.993Z,32.61
2018-09-15T23:40:40.035Z,32.58
2018-09-15T23:43:12.411Z,32.61
2018-09-15T23:45:44.283Z,32.63
2018-09-15T23:48:16.192Z,32.62
2018-09-15T23:50:48.248Z,32.61
2018-09-15T23:53:20.456Z,32.61
2018-09-15T23:55:53.046Z,32.55
2018-09-15T23:58:24.967Z,32.57
